Accueil
METAR-TAF:

METAR-TAF

Aéroports :

Aérodrome de Koné

Koné, Nouvelle-Calédonie

latitude: 21-03-12S, longitude: 164-50-18E, altitude: 7 m

METAR: absent

Heure: 17:31 (06:31 UTC)

Prévision

Le bulletin a été fait il y a 1 heure et 31 minutes, à 05:00 UTC
Prévision valable du 16 à 06 UTC au 17 à 06 UTC
Vent 12 kt de sud/sud-ouest
Visibilité 10 km ou plus
Nuages épars à une hauteur de 3500 ft
Evoluant progressivement
du 16 à 08 UTC au 16 à 10 UTC
Vent 5 kt de est
Evoluant progressivement
du 16 à 22 UTC au 16 à 24 UTC
Vent 15 kt de est
Temporairement
du 17 à 00 UTC au 17 à 06 UTC
Vent 20 kt de sud/sud-ouest avec des rafales jusqu'à 30 kt

TAF: NWWD 160500Z 1606/1706 20012KT 9999 SCT035 BECMG 1608/1610 08005KT BECMG 1622/1624 10015KT TEMPO 1700/1706 20020G30KT

Observations et prévisions météorologiques de plus de 4000 aéroports (messages METAR et TAF).

Les stations disponibles sont représentées par des disques jaunes et rouges sur la carte.

Passer la souris dessus pour voir le nom de la station.

Cliquer dessus pour voir les observations et prévisions météorologiques.

Pour changer de carte: cliquez sur les boutons verts avec une croix noire pour zoomer, sur le bouton vert avec un tiret pour effectuer un zoom arrière, ou sur les flèches vertes pour les cartes adjacentes.


METAR-TAF: